Aberdeen, ID (83210)

12:44 PM MST on February 06, 2016 (GMT -0700)
ARLFRD | | Change Station
CLOSE
Current Station
Personal Weather Station
Location: Aberdeen, ID
Elevation: 4392 ft
Nearby Weather Stations

Elev 4392 ft 42.95 °N, 112.82 °W | Updated 44 minutes ago

Mostly Cloudy
Mostly Cloudy
22 °F
Feels Like 22 °F
N
2
Wind Variable Wind from North
Gusts 2.0 mph

Today
High -- | Low -- °F
--% Chance of Precip.
Yesterday
High -- | Low -- °F
Precip. -- in
Pressure 30.58 in
Visibility 10.0 miles
Clouds Scattered Clouds 6000 ft
Windchill 22 °F
Dew Point 20 °F
Humidity 93%
Rainfall in
Snow Depth Not available.
7:41 AM 5:50 PM
Waning Crescent, 4% visible
METAR KPIH 061853Z COR 04006KT 10SM SCT060 M02/M06 A3044 RMK AO2 SLP353 T10171056
Pressure 30.58 in
Visibility 10.0 miles
Clouds Scattered Clouds 6000 ft
Windchill 22 °F
Dew Point 20 °F
Humidity 93%
Rainfall in
Snow Depth Not available.
7:41 AM 5:50 PM
Waning Crescent, 4% visible
METAR KPIH 061853Z COR 04006KT 10SM SCT060 M02/M06 A3044 RMK AO2 SLP353 T10171056

10-Day Weather Forecast

Almanac

Astronomy

Feb. 06, 2016 Rise Set
Actual Time
Civil Twilight
Nautical Twilight
Astronomical Twilight
Moon
Length of Visible Light
Length of Day
Tomorrow will be .
, % of the Moon is Illuminated

Today's Extremes

State Highs State Lows

Community

WunderPhotos

Upload Photos

1,891,037 photos uploaded!

WunderBlog® & News

Nearby

Air Quality

  Air Quality AQ Index Pollutant
Not available.

Snow Depth

Station Depth Elevation

Earthquake Activity

City Distance Mag. Time & Date
Minimum magnitude displayed is 2.5.

Coastal Water Temperatures

Place Temperature

Stations

Nearby Weather Stations

Station Location Temp. Windchill Dew Point Humidity Wind Precip. Elev Updated Type
                   

Watches & Warnings

There are currently no watches in effect.